Station Historical Data
Daily Summary for October 20, 2017 Units:  English    Metric   Both
« Previous Day
Next Day »
Daily Weekly Monthly Yearly Custom
  High: Low: Average:
Temperature: 77.0 °F 44.7 °F 58.4 °F
Dew Point: 53.4 °F 40.6 °F 47.4 °F
Humidity: 94% 28% 72%
Wind Speed: 7.0mph 3.0mph 4.4mph
Wind Gust: 7.0mph - -
Wind- - SW
Pressure: 30.34 in 30.20 in -
Precipitation: 0.00 in    
Historical Graphs
 
 
Tabular Data for October 20, 2017
Time Temperature Dew Point Pressure Wind Wind Speed Wind Gust Humidity Rainfall Rate (Hourly) Conditions
00:01 50.8 °F 47.7 °F 30.28 in North 3.5 mph 3.5 mph 89% 0.00 in CLR
00:06 50.7 °F 47.6 °F 30.28 in North 3.5 mph 3.5 mph 89% 0.00 in CLR
00:11 50.6 °F 47.5 °F 30.28 in North 3.5 mph 3.5 mph 89% 0.00 in CLR
00:16 50.5 °F 47.4 °F 30.28 in North 3.5 mph 3.5 mph 89% 0.00 in CLR
00:21 50.5 °F 47.7 °F 30.29 in North 3.5 mph 3.5 mph 90% 0.00 in CLR
00:26 50.5 °F 47.7 °F 30.29 in North 3.5 mph 3.5 mph 90% 0.00 in CLR
00:31 50.4 °F 47.6 °F 30.29 in North 3.5 mph 3.5 mph 90% 0.00 in CLR
00:36 50.3 °F 47.5 °F 30.29 in North 3.5 mph 3.5 mph 90% 0.00 in CLR
00:41 50.2 °F 47.4 °F 30.29 in North 3.5 mph 3.5 mph 90% 0.00 in CLR
00:46 50.0 °F 47.2 °F 30.29 in North 3.5 mph 3.5 mph 90% 0.00 in CLR
00:51 49.9 °F 47.1 °F 30.28 in North 3.5 mph 3.5 mph 90% 0.00 in CLR
00:56 49.9 °F 47.1 °F 30.28 in North 3.5 mph 3.5 mph 90% 0.00 in CLR
01:01 49.8 °F 47.0 °F 30.28 in North 3.5 mph 3.5 mph 90% 0.00 in CLR
01:06 49.7 °F 46.9 °F 30.29 in North 3.5 mph 3.5 mph 90% 0.00 in CLR
01:07 49.7 °F 46.9 °F 30.28 in North 3.5 mph 3.5 mph 90% 0.00 in CLR
01:12 49.6 °F 46.8 °F 30.28 in North 3.5 mph 3.5 mph 90% 0.00 in CLR
01:17 49.5 °F 46.7 °F 30.28 in North 3.5 mph 3.5 mph 90% 0.00 in CLR
01:22 49.5 °F 46.7 °F 30.29 in North 3.5 mph 3.5 mph 90% 0.00 in CLR
01:27 49.4 °F 46.6 °F 30.29 in North 3.5 mph 3.5 mph 90% 0.00 in CLR
01:32 49.3 °F 46.5 °F 30.29 in North 3.5 mph 3.5 mph 90% 0.00 in CLR
01:37 49.3 °F 46.5 °F 30.28 in North 3.5 mph 3.5 mph 90% 0.00 in CLR
01:42 49.3 °F 46.8 °F 30.28 in North 3.5 mph 3.5 mph 91% 0.00 in CLR
01:47 49.3 °F 46.8 °F 30.28 in North 3.5 mph 3.5 mph 91% 0.00 in CLR
01:52 49.2 °F 46.7 °F 30.28 in North 3.5 mph 3.5 mph 91% 0.00 in CLR
01:57 49.1 °F 46.6 °F 30.28 in North 3.5 mph 3.5 mph 91% 0.00 in CLR
02:02 49.1 °F 46.6 °F 30.28 in North 3.5 mph 3.5 mph 91% 0.00 in CLR
02:03 49.1 °F 46.6 °F 30.28 in North 3.5 mph 3.5 mph 91% 0.00 in CLR
02:08 49.1 °F 46.6 °F 30.28 in North 3.5 mph 3.5 mph 91% 0.00 in CLR
02:13 49.0 °F 46.5 °F 30.28 in North 3.5 mph 3.5 mph 91% 0.00 in CLR
02:18 48.9 °F 46.4 °F 30.28 in North 3.5 mph 3.5 mph 91% 0.00 in CLR
02:23 48.9 °F 46.4 °F 30.28 in North 3.5 mph 3.5 mph 91% 0.00 in CLR
02:28 48.7 °F 46.2 °F 30.29 in North 3.5 mph 3.5 mph 91% 0.00 in CLR
02:33 48.6 °F 46.1 °F 30.28 in North 3.5 mph 3.5 mph 91% 0.00 in CLR
02:38 48.5 °F 46.0 °F 30.29 in North 3.5 mph 3.5 mph 91% 0.00 in CLR
02:43 48.3 °F 45.8 °F 30.29 in North 3.5 mph 3.5 mph 91% 0.00 in CLR
02:48 48.3 °F 45.8 °F 30.29 in North 3.5 mph 3.5 mph 91% 0.00 in CLR
02:54 48.1 °F 45.6 °F 30.29 in North 3.5 mph 3.5 mph 91% 0.00 in CLR
02:59 48.1 °F 45.6 °F 30.29 in North 3.5 mph 3.5 mph 91% 0.00 in CLR
03:04 48.1 °F 45.6 °F 30.28 in North 3.5 mph 3.5 mph 91% 0.00 in CLR
03:09 48.0 °F 45.5 °F 30.28 in North 3.5 mph 3.5 mph 91% 0.00 in CLR
03:14 47.9 °F 45.4 °F 30.28 in North 3.5 mph 3.5 mph 91% 0.00 in CLR
03:19 47.9 °F 45.4 °F 30.28 in North 3.5 mph 3.5 mph 91% 0.00 in CLR
03:24 47.7 °F 45.2 °F 30.28 in North 3.5 mph 3.5 mph 91% 0.00 in CLR
03:29 47.7 °F 45.2 °F 30.28 in North 3.5 mph 3.5 mph 91% 0.00 in CLR
03:34 47.8 °F 45.3 °F 30.28 in North 3.5 mph 3.5 mph 91% 0.00 in CLR
03:39 47.9 °F 45.7 °F 30.28 in North 3.5 mph 3.5 mph 92% 0.00 in CLR
03:44 48.0 °F 45.8 °F 30.28 in North 3.5 mph 3.5 mph 92% 0.00 in CLR
03:49 48.0 °F 45.8 °F 30.28 in North 3.5 mph 3.5 mph 92% 0.00 in CLR
03:54 47.9 °F 45.4 °F 30.28 in North 3.5 mph 3.5 mph 91% 0.00 in CLR
03:59 47.9 °F 45.4 °F 30.28 in North 3.5 mph 3.5 mph 91% 0.00 in CLR
04:04 47.8 °F 45.6 °F 30.28 in West 3.5 mph 3.5 mph 92% 0.00 in CLR
04:09 47.7 °F 45.2 °F 30.28 in West 3.5 mph 3.5 mph 91% 0.00 in CLR
04:14 47.6 °F 45.1 °F 30.28 in West 3.5 mph 3.5 mph 91% 0.00 in CLR
04:20 47.5 °F 45.0 °F 30.28 in West 3.5 mph 3.5 mph 91% 0.00 in CLR
04:25 47.3 °F 44.8 °F 30.28 in West 3.5 mph 3.5 mph 91% 0.00 in CLR
04:30 47.3 °F 44.8 °F 30.28 in West 3.5 mph 3.5 mph 91% 0.00 in CLR
04:35 47.2 °F 44.7 °F 30.28 in West 3.0 mph 3.0 mph 91% 0.00 in CLR
04:40 47.1 °F 44.6 °F 30.28 in West 3.0 mph 3.0 mph 91% 0.00 in CLR
04:45 47.0 °F 44.5 °F 30.28 in West 3.5 mph 3.5 mph 91% 0.00 in CLR
04:50 47.0 °F 44.8 °F 30.28 in West 3.0 mph 3.0 mph 92% 0.00 in CLR
04:55 46.9 °F 44.4 °F 30.28 in West 3.0 mph 3.0 mph 91% 0.00 in CLR
05:00 46.7 °F 44.2 °F 30.28 in West 3.0 mph 3.0 mph 91% 0.00 in CLR
05:05 46.6 °F 44.1 °F 30.29 in West 3.0 mph 3.0 mph 91% 0.00 in CLR
05:10 46.5 °F 44.3 °F 30.29 in West 3.0 mph 3.0 mph 92% 0.00 in CLR
05:15 46.5 °F 44.3 °F 30.29 in West 3.0 mph 3.0 mph 92% 0.00 in CLR
05:20 46.4 °F 44.2 °F 30.29 in West 3.0 mph 3.0 mph 92% 0.00 in CLR
05:25 46.3 °F 44.1 °F 30.29 in West 3.0 mph 3.0 mph 92% 0.00 in CLR
05:30 46.1 °F 43.9 °F 30.29 in West 3.0 mph 3.0 mph 92% 0.00 in CLR
05:35 46.1 °F 43.9 °F 30.29 in West 3.0 mph 3.0 mph 92% 0.00 in CLR
05:45 46.0 °F 43.8 °F 30.29 in West 3.5 mph 3.5 mph 92% 0.00 in CLR
05:50 46.0 °F 43.8 °F 30.29 in West 3.0 mph 3.0 mph 92% 0.00 in CLR
05:55 45.9 °F 43.7 °F 30.29 in West 3.0 mph 3.0 mph 92% 0.00 in CLR
06:00 45.9 °F 43.7 °F 30.29 in West 3.0 mph 3.0 mph 92% 0.00 in CLR
06:05 45.8 °F 43.6 °F 30.29 in West 3.0 mph 3.0 mph 92% 0.00 in CLR
06:10 45.8 °F 43.6 °F 30.30 in West 3.0 mph 3.0 mph 92% 0.00 in CLR
06:15 45.8 °F 43.6 °F 30.30 in West 3.0 mph 3.0 mph 92% 0.00 in CLR
06:20 45.7 °F 43.5 °F 30.30 in West 3.5 mph 3.5 mph 92% 0.00 in CLR
06:25 45.7 °F 43.5 °F 30.30 in West 3.0 mph 3.0 mph 92% 0.00 in CLR
06:30 45.6 °F 43.4 °F 30.30 in West 3.0 mph 3.0 mph 92% 0.00 in CLR
06:35 45.6 °F 43.4 °F 30.31 in West 3.5 mph 3.5 mph 92% 0.00 in CLR
06:40 45.6 °F 43.4 °F 30.31 in West 3.5 mph 3.5 mph 92% 0.00 in CLR
06:45 45.5 °F 43.3 °F 30.31 in West 3.5 mph 3.5 mph 92% 0.00 in CLR
06:50 45.4 °F 43.2 °F 30.31 in West 3.5 mph 3.5 mph 92% 0.00 in CLR
06:55 45.4 °F 43.2 °F 30.31 in West 3.5 mph 3.5 mph 92% 0.00 in CLR
07:00 45.3 °F 43.1 °F 30.31 in West 3.5 mph 3.5 mph 92% 0.00 in CLR
07:05 45.2 °F 43.0 °F 30.31 in West 3.5 mph 3.5 mph 92% 0.00 in CLR
07:10 45.2 °F 43.0 °F 30.31 in West 3.5 mph 3.5 mph 92% 0.00 in CLR
07:15 45.2 °F 43.0 °F 30.31 in West 3.5 mph 3.5 mph 92% 0.00 in CLR
07:20 45.1 °F 42.9 °F 30.31 in West 3.5 mph 3.5 mph 92% 0.00 in CLR
07:25 45.0 °F 42.8 °F 30.31 in West 3.5 mph 3.5 mph 92% 0.00 in CLR
07:30 45.0 °F 42.8 °F 30.31 in West 3.5 mph 3.5 mph 92% 0.00 in CLR
07:35 44.9 °F 42.7 °F 30.31 in West 3.5 mph 3.5 mph 92% 0.00 in CLR
07:40 44.8 °F 42.6 °F 30.31 in West 3.5 mph 3.5 mph 92% 0.00 in CLR
07:46 44.7 °F 42.5 °F 30.31 in West 3.5 mph 3.5 mph 92% 0.00 in CLR
07:51 44.7 °F 42.5 °F 30.31 in West 3.5 mph 3.5 mph 92% 0.00 in CLR
07:56 44.7 °F 42.5 °F 30.31 in West 3.5 mph 3.5 mph 92% 0.00 in CLR
08:01 44.7 °F 42.5 °F 30.31 in West 3.5 mph 3.5 mph 92% 0.00 in FEW
08:06 44.7 °F 42.5 °F 30.31 in West 3.5 mph 3.5 mph 92% 0.00 in FEW
08:11 44.7 °F 42.5 °F 30.31 in West 3.5 mph 3.5 mph 92% 0.00 in FEW
08:16 44.9 °F 43.0 °F 30.31 in West 3.5 mph 3.5 mph 93% 0.00 in FEW
08:21 45.0 °F 43.1 °F 30.31 in West 3.5 mph 3.5 mph 93% 0.00 in FEW
08:27 45.1 °F 43.2 °F 30.32 in West 3.5 mph 3.5 mph 93% 0.00 in FEW
08:32 45.3 °F 43.4 °F 30.32 in West 3.5 mph 3.5 mph 93% 0.00 in FEW
08:37 45.6 °F 43.7 °F 30.32 in West 3.5 mph 3.5 mph 93% 0.00 in FEW
08:42 45.8 °F 43.9 °F 30.32 in West 3.5 mph 3.5 mph 93% 0.00 in FEW
08:47 46.2 °F 44.3 °F 30.32 in West 3.5 mph 3.5 mph 93% 0.00 in FEW
08:52 46.4 °F 44.5 °F 30.32 in West 3.5 mph 3.5 mph 93% 0.00 in FEW
09:02 47.2 °F 45.3 °F 30.33 in West 3.5 mph 3.5 mph 93% 0.00 in FEW
09:07 47.6 °F 45.7 °F 30.33 in West 3.5 mph 3.5 mph 93% 0.00 in FEW
09:12 48.1 °F 46.5 °F 30.33 in West 3.5 mph 3.5 mph 94% 0.00 in FEW
09:17 48.5 °F 46.9 °F 30.33 in West 3.5 mph 3.5 mph 94% 0.00 in FEW
09:22 48.9 °F 47.2 °F 30.34 in West 3.5 mph 3.5 mph 94% 0.00 in FEW
09:27 49.5 °F 47.8 °F 30.33 in West 3.5 mph 3.5 mph 94% 0.00 in FEW
09:32 50.1 °F 48.4 °F 30.33 in West 3.5 mph 3.5 mph 94% 0.00 in FEW
09:37 50.6 °F 48.9 °F 30.33 in West 3.5 mph 3.5 mph 94% 0.00 in FEW
09:42 51.2 °F 49.5 °F 30.33 in West 3.5 mph 3.5 mph 94% 0.00 in FEW
09:47 51.7 °F 50.0 °F 30.33 in West 3.5 mph 3.5 mph 94% 0.00 in FEW
09:52 52.4 °F 50.7 °F 30.33 in West 3.5 mph 3.5 mph 94% 0.00 in FEW
09:57 52.9 °F 51.2 °F 30.33 in West 3.5 mph 3.5 mph 94% 0.00 in FEW
10:03 53.4 °F 51.7 °F 30.33 in West 3.5 mph 3.5 mph 94% 0.00 in FEW
10:08 54.5 °F 51.6 °F 30.33 in West 3.5 mph 3.5 mph 90% 0.00 in FEW
10:13 55.3 °F 51.8 °F 30.33 in West 3.5 mph 3.5 mph 88% 0.00 in FEW
10:18 56.2 °F 51.7 °F 30.33 in West 3.5 mph 3.5 mph 85% 0.00 in FEW
10:23 57.3 °F 51.9 °F 30.33 in West 3.5 mph 3.5 mph 82% 0.00 in FEW
10:28 58.4 °F 51.9 °F 30.33 in West 3.5 mph 3.5 mph 79% 0.00 in FEW
10:33 59.3 °F 51.7 °F 30.33 in West 3.5 mph 3.5 mph 76% 0.00 in FEW
10:38 60.3 °F 52.7 °F 30.33 in West 3.5 mph 3.5 mph 76% 0.00 in FEW
10:43 61.6 °F 52.9 °F 30.33 in West 3.5 mph 3.5 mph 73% 0.00 in FEW
10:48 62.6 °F 52.3 °F 30.33 in West 3.5 mph 3.5 mph 69% 0.00 in FEW
10:53 63.2 °F 52.1 °F 30.33 in West 3.5 mph 3.5 mph 67% 0.00 in FEW
10:58 64.2 °F 53.4 °F 30.33 in West 3.5 mph 3.5 mph 68% 0.00 in FEW
11:03 64.8 °F 52.8 °F 30.33 in West 3.5 mph 3.5 mph 65% 0.00 in FEW
11:08 65.7 °F 52.8 °F 30.33 in West 3.5 mph 3.5 mph 63% 0.00 in FEW
11:13 66.8 °F 52.5 °F 30.33 in West 3.5 mph 3.5 mph 60% 0.00 in FEW
11:18 67.8 °F 52.9 °F 30.33 in West 3.5 mph 3.5 mph 59% 0.00 in FEW
11:23 68.6 °F 53.2 °F 30.32 in West 3.5 mph 3.5 mph 58% 0.00 in FEW
11:29 69.1 °F 53.2 °F 30.33 in West 3.5 mph 3.5 mph 57% 0.00 in FEW
11:34 69.8 °F 52.4 °F 30.33 in West 3.5 mph 3.5 mph 54% 0.00 in FEW
11:39 70.5 °F 52.5 °F 30.32 in West 3.5 mph 3.5 mph 53% 0.00 in FEW
11:44 71.0 °F 50.9 °F 30.32 in West 3.5 mph 3.5 mph 49% 0.00 in FEW
11:49 71.5 °F 51.9 °F 30.32 in West 3.5 mph 3.5 mph 50% 0.00 in FEW
11:54 71.5 °F 51.9 °F 30.32 in West 3.5 mph 3.5 mph 50% 0.00 in FEW
11:59 70.9 °F 51.3 °F 30.32 in West 3.5 mph 3.5 mph 50% 0.00 in FEW
12:04 70.3 °F 50.8 °F 30.32 in West 3.5 mph 3.5 mph 50% 0.00 in SCT
12:09 69.8 °F 48.7 °F 30.32 in West 3.5 mph 3.5 mph 47% 0.00 in SCT
12:14 69.4 °F 49.4 °F 30.32 in West 3.5 mph 3.5 mph 49% 0.00 in SCT
12:19 69.5 °F 50.6 °F 30.31 in West 3.5 mph 3.5 mph 51% 0.00 in SCT
12:24 69.9 °F 52.5 °F 30.31 in West 3.5 mph 3.5 mph 54% 0.00 in SCT
12:29 70.1 °F 50.0 °F 30.31 in West 3.5 mph 3.5 mph 49% 0.00 in SCT
12:34 70.2 °F 50.1 °F 30.31 in West 3.5 mph 3.5 mph 49% 0.00 in SCT
12:39 70.2 °F 49.6 °F 30.31 in West 3.5 mph 3.5 mph 48% 0.00 in SCT
12:45 70.3 °F 50.8 °F 30.30 in West 3.5 mph 3.5 mph 50% 0.00 in SCT
12:50 70.5 °F 46.9 °F 30.30 in West 3.5 mph 3.5 mph 43% 0.00 in SCT
12:55 70.7 °F 45.2 °F 30.30 in West 3.5 mph 3.5 mph 40% 0.00 in SCT
13:00 70.9 °F 45.3 °F 30.30 in West 3.0 mph 3.0 mph 40% 0.00 in SCT
13:05 71.1 °F 44.9 °F 30.30 in West 3.0 mph 3.0 mph 39% 0.00 in SCT
13:10 71.2 °F 46.9 °F 30.29 in West 3.0 mph 3.0 mph 42% 0.00 in SCT
13:15 71.3 °F 46.3 °F 30.29 in West 3.0 mph 3.0 mph 41% 0.00 in SCT
13:20 71.6 °F 46.0 °F 30.29 in West 3.0 mph 3.0 mph 40% 0.00 in SCT
13:25 71.9 °F 45.6 °F 30.29 in West 3.0 mph 3.0 mph 39% 0.00 in SCT
13:30 72.0 °F 43.6 °F 30.29 in West 3.0 mph 3.0 mph 36% 0.00 in SCT
13:35 72.2 °F 45.2 °F 30.28 in West 3.5 mph 3.5 mph 38% 0.00 in SCT
13:40 72.3 °F 45.9 °F 30.28 in West 3.5 mph 3.5 mph 39% 0.00 in SCT
13:45 72.7 °F 47.0 °F 30.28 in West 3.5 mph 3.5 mph 40% 0.00 in SCT
13:50 73.2 °F 46.1 °F 30.27 in West 3.5 mph 3.5 mph 38% 0.00 in SCT
13:55 74.0 °F 47.5 °F 30.27 in West 3.5 mph 3.5 mph 39% 0.00 in SCT
14:00 74.8 °F 46.8 °F 30.27 in West 3.5 mph 3.5 mph 37% 0.00 in SCT
14:05 75.4 °F 45.1 °F 30.26 in SW 3.5 mph 3.5 mph 34% 0.00 in SCT
14:10 75.2 °F 44.9 °F 30.26 in SW 3.5 mph 3.5 mph 34% 0.00 in SCT
14:16 75.4 °F 44.3 °F 30.26 in SW 3.5 mph 3.5 mph 33% 0.00 in SCT
14:21 75.5 °F 44.4 °F 30.26 in SW 3.5 mph 3.5 mph 33% 0.00 in SCT
14:26 75.6 °F 46.0 °F 30.25 in SW 3.5 mph 3.5 mph 35% 0.00 in SCT
14:31 75.7 °F 43.7 °F 30.25 in SW 3.5 mph 3.5 mph 32% 0.00 in SCT
14:36 76.1 °F 44.1 °F 30.25 in SW 3.5 mph 3.5 mph 32% 0.00 in SCT
14:41 76.1 °F 46.5 °F 30.24 in SW 3.5 mph 3.5 mph 35% 0.00 in SCT
14:46 76.2 °F 46.5 °F 30.24 in SW 3.5 mph 3.5 mph 35% 0.00 in SCT
14:51 76.5 °F 46.0 °F 30.24 in SW 3.5 mph 3.5 mph 34% 0.00 in SCT
14:56 76.8 °F 46.3 °F 30.24 in SW 3.5 mph 3.5 mph 34% 0.00 in SCT
15:01 77.0 °F 41.4 °F 30.24 in SE 3.5 mph 3.5 mph 28% 0.00 in SCT
15:06 76.9 °F 42.2 °F 30.24 in SE 3.5 mph 3.5 mph 29% 0.00 in SCT
15:11 76.7 °F 42.0 °F 30.24 in SE 3.5 mph 3.5 mph 29% 0.00 in SCT
15:16 76.4 °F 42.7 °F 30.23 in SE 3.5 mph 3.5 mph 30% 0.00 in SCT
15:22 76.1 °F 45.7 °F 30.23 in SE 3.5 mph 3.5 mph 34% 0.00 in SCT
15:27 76.0 °F 42.3 °F 30.23 in SE 3.5 mph 3.5 mph 30% 0.00 in SCT
15:32 75.8 °F 43.8 °F 30.22 in SE 3.5 mph 3.5 mph 32% 0.00 in SCT
15:37 75.4 °F 45.8 °F 30.22 in SE 3.5 mph 3.5 mph 35% 0.00 in SCT
15:42 75.1 °F 47.0 °F 30.22 in SE 3.5 mph 3.5 mph 37% 0.00 in SCT
15:47 75.0 °F 40.6 °F 30.22 in SE 3.5 mph 3.5 mph 29% 0.00 in SCT
15:52 75.2 °F 43.3 °F 30.22 in SE 3.5 mph 3.5 mph 32% 0.00 in SCT
15:57 75.3 °F 41.7 °F 30.22 in SE 3.5 mph 3.5 mph 30% 0.00 in SCT
16:02 75.4 °F 42.7 °F 30.22 in SE 3.5 mph 3.5 mph 31% 0.00 in SCT
16:07 75.5 °F 41.0 °F 30.22 in SE 3.5 mph 3.5 mph 29% 0.00 in SCT
16:12 75.0 °F 43.1 °F 30.22 in SE 3.5 mph 3.5 mph 32% 0.00 in SCT
16:17 74.8 °F 44.5 °F 30.22 in SE 3.5 mph 3.5 mph 34% 0.00 in SCT
16:22 74.5 °F 45.8 °F 30.22 in SE 3.5 mph 3.5 mph 36% 0.00 in SCT
16:27 74.4 °F 45.0 °F 30.21 in SE 3.5 mph 3.5 mph 35% 0.00 in SCT
16:32 74.4 °F 47.1 °F 30.22 in SE 3.5 mph 3.5 mph 38% 0.00 in SCT
16:37 74.3 °F 47.0 °F 30.21 in SE 3.5 mph 3.5 mph 38% 0.00 in SCT
16:42 73.8 °F 46.6 °F 30.21 in SE 3.5 mph 3.5 mph 38% 0.00 in SCT
16:47 73.6 °F 45.7 °F 30.21 in SE 3.5 mph 3.5 mph 37% 0.00 in SCT
16:57 73.0 °F 45.9 °F 30.21 in SE 3.5 mph 3.5 mph 38% 0.00 in SCT
17:03 72.7 °F 46.3 °F 30.21 in SE 4.6 mph 4.6 mph 39% 0.00 in SCT
17:08 72.7 °F 45.6 °F 30.21 in SE 4.6 mph 4.6 mph 38% 0.00 in SCT
17:13 72.7 °F 46.3 °F 30.21 in SE 4.6 mph 4.6 mph 39% 0.00 in SCT
17:18 72.5 °F 46.8 °F 30.20 in SE 4.6 mph 4.6 mph 40% 0.00 in SCT
17:23 72.1 °F 46.4 °F 30.20 in SE 4.6 mph 4.6 mph 40% 0.00 in SCT
17:28 71.8 °F 46.8 °F 30.20 in SE 4.6 mph 4.6 mph 41% 0.00 in SCT
17:33 71.6 °F 47.9 °F 30.20 in SE 4.6 mph 4.6 mph 43% 0.00 in SCT
17:38 71.5 °F 47.8 °F 30.20 in SE 4.6 mph 4.6 mph 43% 0.00 in SCT
17:43 71.3 °F 48.3 °F 30.20 in SE 4.6 mph 4.6 mph 44% 0.00 in SCT
17:48 71.2 °F 48.2 °F 30.20 in SE 4.6 mph 4.6 mph 44% 0.00 in SCT
17:53 70.9 °F 48.5 °F 30.20 in SE 4.6 mph 4.6 mph 45% 0.00 in SCT
17:58 70.6 °F 48.8 °F 30.20 in SE 4.6 mph 4.6 mph 46% 0.00 in SCT
18:03 70.3 °F 49.1 °F 30.20 in SE 6.9 mph 6.9 mph 47% 0.00 in SCT
18:08 70.0 °F 49.4 °F 30.20 in SE 6.9 mph 6.9 mph 48% 0.00 in SCT
18:13 69.6 °F 50.7 °F 30.20 in SE 6.9 mph 6.9 mph 51% 0.00 in SCT
18:18 69.2 °F 50.3 °F 30.20 in SE 6.9 mph 6.9 mph 51% 0.00 in SCT
18:23 68.8 °F 50.5 °F 30.20 in SE 6.9 mph 6.9 mph 52% 0.00 in SCT
18:28 68.5 °F 50.7 °F 30.20 in SE 6.9 mph 6.9 mph 53% 0.00 in SCT
18:33 68.2 °F 50.4 °F 30.20 in SE 6.9 mph 6.9 mph 53% 0.00 in SCT
18:38 67.9 °F 50.1 °F 30.20 in SE 6.9 mph 6.9 mph 53% 0.00 in SCT
18:43 67.5 °F 50.3 °F 30.21 in SE 6.9 mph 6.9 mph 54% 0.00 in SCT
18:48 67.1 °F 49.4 °F 30.21 in SE 6.9 mph 6.9 mph 53% 0.00 in SCT
18:54 66.7 °F 50.0 °F 30.21 in SE 6.9 mph 6.9 mph 55% 0.00 in SCT
18:59 66.2 °F 50.5 °F 30.21 in SE 6.9 mph 6.9 mph 57% 0.00 in SCT
19:04 65.7 °F 50.5 °F 30.21 in SE 6.9 mph 6.9 mph 58% 0.00 in SCT
19:09 65.2 °F 50.5 °F 30.21 in SE 6.9 mph 6.9 mph 59% 0.00 in SCT
19:14 64.6 °F 49.9 °F 30.21 in SE 6.9 mph 6.9 mph 59% 0.00 in SCT
19:19 64.0 °F 49.8 °F 30.21 in SE 6.9 mph 6.9 mph 60% 0.00 in SCT
19:24 63.6 °F 49.5 °F 30.21 in SE 6.9 mph 6.9 mph 60% 0.00 in SCT
19:29 63.2 °F 50.0 °F 30.21 in SE 6.9 mph 6.9 mph 62% 0.00 in SCT
19:34 62.8 °F 50.0 °F 30.22 in SE 6.9 mph 6.9 mph 63% 0.00 in SCT
19:39 62.3 °F 50.8 °F 30.22 in SE 6.9 mph 6.9 mph 66% 0.00 in SCT
19:44 61.9 °F 50.8 °F 30.22 in SE 6.9 mph 6.9 mph 67% 0.00 in SCT
19:49 61.5 °F 50.4 °F 30.22 in SE 6.9 mph 6.9 mph 67% 0.00 in SCT
19:54 61.2 °F 50.6 °F 30.22 in SE 6.9 mph 6.9 mph 68% 0.00 in SCT
19:59 60.9 °F 50.7 °F 30.23 in SE 6.9 mph 6.9 mph 69% 0.00 in SCT
20:04 60.7 °F 51.2 °F 30.23 in SE 6.9 mph 6.9 mph 71% 0.00 in SCT
20:09 60.4 °F 51.3 °F 30.23 in SE 6.9 mph 6.9 mph 72% 0.00 in SCT
20:14 60.1 °F 51.8 °F 30.23 in SE 6.9 mph 6.9 mph 74% 0.00 in SCT
20:19 59.8 °F 51.9 °F 30.23 in SE 6.9 mph 6.9 mph 75% 0.00 in SCT
20:24 59.6 °F 51.7 °F 30.23 in SE 6.9 mph 6.9 mph 75% 0.00 in SCT
20:29 59.3 °F 51.4 °F 30.23 in SE 6.9 mph 6.9 mph 75% 0.00 in SCT
20:34 59.0 °F 51.4 °F 30.23 in SE 6.9 mph 6.9 mph 76% 0.00 in SCT
20:39 58.8 °F 51.6 °F 30.23 in SE 6.9 mph 6.9 mph 77% 0.00 in SCT
20:44 58.6 °F 51.4 °F 30.23 in SE 6.9 mph 6.9 mph 77% 0.00 in SCT
20:49 58.4 °F 51.2 °F 30.23 in SE 6.9 mph 6.9 mph 77% 0.00 in SCT
20:54 58.3 °F 51.1 °F 30.23 in SE 6.9 mph 6.9 mph 77% 0.00 in SCT
21:00 58.1 °F 51.3 °F 30.24 in SE 6.9 mph 6.9 mph 78% 0.00 in SCT
21:05 57.9 °F 51.1 °F 30.24 in SE 6.9 mph 6.9 mph 78% 0.00 in SCT
21:10 57.8 °F 51.0 °F 30.24 in SE 6.9 mph 6.9 mph 78% 0.00 in SCT
21:15 57.6 °F 50.8 °F 30.23 in SE 6.9 mph 6.9 mph 78% 0.00 in SCT
21:20 57.4 °F 50.9 °F 30.24 in SE 7.0 mph 7.0 mph 79% 0.00 in SCT
21:25 57.2 °F 50.7 °F 30.24 in SE 7.0 mph 7.0 mph 79% 0.00 in SCT
21:35 56.9 °F 51.1 °F 30.24 in SE 7.0 mph 7.0 mph 81% 0.00 in SCT
21:40 56.7 °F 50.6 °F 30.24 in SE 7.0 mph 7.0 mph 80% 0.00 in SCT
21:45 56.5 °F 50.4 °F 30.24 in SE 7.0 mph 7.0 mph 80% 0.00 in SCT
21:50 56.4 °F 51.0 °F 30.24 in SE 7.0 mph 7.0 mph 82% 0.00 in SCT
21:55 56.3 °F 50.9 °F 30.25 in SE 7.0 mph 7.0 mph 82% 0.00 in SCT
22:00 56.1 °F 50.7 °F 30.25 in SE 7.0 mph 7.0 mph 82% 0.00 in SCT
22:05 56.0 °F 50.6 °F 30.25 in SE 7.0 mph 7.0 mph 82% 0.00 in SCT
22:10 55.9 °F 50.5 °F 30.25 in SE 7.0 mph 7.0 mph 82% 0.00 in SCT
22:15 55.7 °F 50.3 °F 30.25 in SE 7.0 mph 7.0 mph 82% 0.00 in SCT
22:20 55.6 °F 50.6 °F 30.25 in SE 7.0 mph 7.0 mph 83% 0.00 in SCT
22:25 55.5 °F 50.1 °F 30.25 in SE 6.9 mph 6.9 mph 82% 0.00 in SCT
22:35 55.3 °F 50.2 °F 30.25 in SE 6.9 mph   83% 0.00 in SCT
22:40 55.1 °F 50.0 °F 30.25 in SE 6.9 mph 6.9 mph 83% 0.00 in SCT
22:45 54.9 °F 49.8 °F 30.25 in SE 6.9 mph 6.9 mph 83% 0.00 in SCT
22:50 54.8 °F 50.1 °F 30.25 in SE 6.9 mph 6.9 mph 84% 0.00 in SCT
22:55 54.8 °F 50.1 °F 30.25 in SE 6.9 mph 6.9 mph 84% 0.00 in SCT
23:00 54.7 °F 50.3 °F 30.25 in SE 6.9 mph 6.9 mph 85% 0.00 in SCT
23:05 54.7 °F 50.3 °F 30.25 in SE 6.9 mph 6.9 mph 85% 0.00 in SCT
23:10 54.7 °F 50.3 °F 30.25 in SE 6.9 mph 6.9 mph 85% 0.00 in SCT
23:16 54.7 °F 50.3 °F 30.25 in SE 6.9 mph 6.9 mph 85% 0.00 in SCT
23:19 54.7 °F 50.3 °F 30.25 in SE 6.9 mph 6.9 mph 85% 0.00 in SCT
23:21 54.7 °F 50.3 °F 30.25 in SE 6.9 mph 6.9 mph 85% 0.00 in SCT
23:24 54.7 °F 50.3 °F 30.25 in SE 6.9 mph 6.9 mph 85% 0.00 in SCT
23:26 54.7 °F 50.3 °F 30.25 in SE 6.9 mph 6.9 mph 85% 0.00 in SCT
23:32 54.7 °F 50.6 °F 30.25 in SE 6.9 mph 6.9 mph 86% 0.00 in SCT
23:37 54.6 °F 50.2 °F 30.25 in SE 6.9 mph 6.9 mph 85% 0.00 in SCT
23:42 54.7 °F 50.3 °F 30.25 in SE 6.9 mph 6.9 mph 85% 0.00 in SCT
23:47 54.7 °F 50.3 °F 30.25 in SE 6.9 mph 6.9 mph 85% 0.00 in SCT
23:52 54.7 °F 50.3 °F 30.25 in SE 6.9 mph 6.9 mph 85% 0.00 in SCT
23:57 54.6 °F 49.9 °F 30.25 in SE 6.9 mph 6.9 mph 84% 0.00 in SCT
Piedmont Bend
Compliments of Weather Underground - 4 mb